sensor_id;sensor_type;location;lat;lon;timestamp;temperature;humidity
7411;DHT22;3747;48.628;9.058;2023-04-15T00:02:24;1.70;99.90
7411;DHT22;3747;48.628;9.058;2023-04-15T00:04:51;1.60;99.90
7411;DHT22;3747;48.628;9.058;2023-04-15T00:07:17;1.70;99.90
7411;DHT22;3747;48.628;9.058;2023-04-15T00:09:44;1.90;99.90
7411;DHT22;3747;48.628;9.058;2023-04-15T00:12:11;1.80;99.90
7411;DHT22;3747;48.628;9.058;2023-04-15T00:14:39;1.80;99.90
7411;DHT22;3747;48.628;9.058;2023-04-15T00:17:06;2.00;99.90
7411;DHT22;3747;48.628;9.058;2023-04-15T00:19:32;2.20;99.90
7411;DHT22;3747;48.628;9.058;2023-04-15T00:21:59;2.30;99.90
7411;DHT22;3747;48.628;9.058;2023-04-15T00:24:26;2.30;99.90
7411;DHT22;3747;48.628;9.058;2023-04-15T00:26:53;2.60;99.90
7411;DHT22;3747;48.628;9.058;2023-04-15T00:29:20;2.80;99.90
7411;DHT22;3747;48.628;9.058;2023-04-15T00:31:48;2.80;99.90
7411;DHT22;3747;48.628;9.058;2023-04-15T00:34:15;3.00;99.90
7411;DHT22;3747;48.628;9.058;2023-04-15T00:36:42;2.90;99.90
7411;DHT22;3747;48.628;9.058;2023-04-15T00:39:09;2.60;99.90
7411;DHT22;3747;48.628;9.058;2023-04-15T00:41:35;2.20;99.90
7411;DHT22;3747;48.628;9.058;2023-04-15T00:44:04;2.00;99.90
7411;DHT22;3747;48.628;9.058;2023-04-15T00:46:32;1.90;99.90
7411;DHT22;3747;48.628;9.058;2023-04-15T00:49:03;2.00;99.90
7411;DHT22;3747;48.628;9.058;2023-04-15T00:51:29;2.20;99.90
7411;DHT22;3747;48.628;9.058;2023-04-15T00:53:58;2.20;99.90
7411;DHT22;3747;48.628;9.058;2023-04-15T00:56:24;2.40;99.90
7411;DHT22;3747;48.628;9.058;2023-04-15T00:58:52;2.60;99.90
7411;DHT22;3747;48.628;9.058;2023-04-15T01:01:20;2.80;99.90
7411;DHT22;3747;48.628;9.058;2023-04-15T01:03:48;2.80;99.90
7411;DHT22;3747;48.628;9.058;2023-04-15T01:06:17;3.00;99.90
7411;DHT22;3747;48.628;9.058;2023-04-15T01:08:44;3.00;99.90
7411;DHT22;3747;48.628;9.058;2023-04-15T01:11:11;2.70;99.90
7411;DHT22;3747;48.628;9.058;2023-04-15T01:13:39;2.50;99.90
7411;DHT22;3747;48.628;9.058;2023-04-15T01:16:06;2.40;99.90
7411;DHT22;3747;48.628;9.058;2023-04-15T01:18:34;2.30;99.90
7411;DHT22;3747;48.628;9.058;2023-04-15T01:21:02;2.20;99.90
7411;DHT22;3747;48.628;9.058;2023-04-15T01:23:31;2.00;99.90
7411;DHT22;3747;48.628;9.058;2023-04-15T01:25:59;1.90;99.90
7411;DHT22;3747;48.628;9.058;2023-04-15T01:28:27;1.70;99.90
7411;DHT22;3747;48.628;9.058;2023-04-15T01:31:05;1.50;99.90
7411;DHT22;3747;48.628;9.058;2023-04-15T01:33:32;1.20;99.90
7411;DHT22;3747;48.628;9.058;2023-04-15T01:35:59;1.00;99.90
7411;DHT22;3747;48.628;9.058;2023-04-15T01:38:26;0.90;99.90
7411;DHT22;3747;48.628;9.058;2023-04-15T01:40:53;0.90;99.90
7411;DHT22;3747;48.628;9.058;2023-04-15T01:43:21;0.90;99.90
7411;DHT22;3747;48.628;9.058;2023-04-15T01:45:48;1.00;99.90
7411;DHT22;3747;48.628;9.058;2023-04-15T01:48:14;1.10;99.90
7411;DHT22;3747;48.628;9.058;2023-04-15T01:50:42;1.40;99.90
7411;DHT22;3747;48.628;9.058;2023-04-15T01:53:08;1.50;99.90
7411;DHT22;3747;48.628;9.058;2023-04-15T01:55:35;1.70;99.90
7411;DHT22;3747;48.628;9.058;2023-04-15T01:58:02;1.90;99.90
7411;DHT22;3747;48.628;9.058;2023-04-15T02:00:30;2.10;99.90
7411;DHT22;3747;48.628;9.058;2023-04-15T02:02:57;2.20;99.90
7411;DHT22;3747;48.628;9.058;2023-04-15T02:05:24;2.20;99.90
7411;DHT22;3747;48.628;9.058;2023-04-15T02:07:51;1.90;99.90
7411;DHT22;3747;48.628;9.058;2023-04-15T02:10:18;1.60;99.90
7411;DHT22;3747;48.628;9.058;2023-04-15T02:12:45;1.30;99.90
7411;DHT22;3747;48.628;9.058;2023-04-15T02:15:11;1.00;99.90
7411;DHT22;3747;48.628;9.058;2023-04-15T02:17:40;0.80;99.90
7411;DHT22;3747;48.628;9.058;2023-04-15T02:20:10;0.70;99.90
7411;DHT22;3747;48.628;9.058;2023-04-15T02:22:37;0.60;99.90
7411;DHT22;3747;48.628;9.058;2023-04-15T02:25:05;0.80;99.90
7411;DHT22;3747;48.628;9.058;2023-04-15T02:27:32;1.10;99.90
7411;DHT22;3747;48.628;9.058;2023-04-15T02:29:59;1.10;99.90
7411;DHT22;3747;48.628;9.058;2023-04-15T02:32:26;1.00;99.90
7411;DHT22;3747;48.628;9.058;2023-04-15T02:34:54;1.00;99.90
7411;DHT22;3747;48.628;9.058;2023-04-15T02:37:21;0.90;99.90
7411;DHT22;3747;48.628;9.058;2023-04-15T02:39:49;0.70;99.90
7411;DHT22;3747;48.628;9.058;2023-04-15T02:42:15;0.60;99.90
7411;DHT22;3747;48.628;9.058;2023-04-15T02:44:42;0.70;99.90
7411;DHT22;3747;48.628;9.058;2023-04-15T02:47:09;0.60;99.90
7411;DHT22;3747;48.628;9.058;2023-04-15T02:49:36;0.50;99.90
7411;DHT22;3747;48.628;9.058;2023-04-15T02:52:04;0.30;99.90
7411;DHT22;3747;48.628;9.058;2023-04-15T02:54:31;0.30;99.90
7411;DHT22;3747;48.628;9.058;2023-04-15T02:56:58;0.30;99.90
7411;DHT22;3747;48.628;9.058;2023-04-15T02:59:26;0.50;99.90
7411;DHT22;3747;48.628;9.058;2023-04-15T03:01:52;0.80;99.90
7411;DHT22;3747;48.628;9.058;2023-04-15T03:04:20;0.90;99.90
7411;DHT22;3747;48.628;9.058;2023-04-15T03:06:47;1.00;99.90
7411;DHT22;3747;48.628;9.058;2023-04-15T03:09:15;1.10;99.90
7411;DHT22;3747;48.628;9.058;2023-04-15T03:11:42;1.30;99.90
7411;DHT22;3747;48.628;9.058;2023-04-15T03:14:08;1.40;99.90
7411;DHT22;3747;48.628;9.058;2023-04-15T03:16:35;1.60;99.90
7411;DHT22;3747;48.628;9.058;2023-04-15T03:19:02;1.80;99.90
7411;DHT22;3747;48.628;9.058;2023-04-15T03:21:28;2.00;99.90
7411;DHT22;3747;48.628;9.058;2023-04-15T03:23:56;2.10;99.90
7411;DHT22;3747;48.628;9.058;2023-04-15T03:26:25;2.10;99.90
7411;DHT22;3747;48.628;9.058;2023-04-15T03:28:52;2.20;99.90
7411;DHT22;3747;48.628;9.058;2023-04-15T03:31:19;2.20;99.90
7411;DHT22;3747;48.628;9.058;2023-04-15T03:33:46;2.20;99.90
7411;DHT22;3747;48.628;9.058;2023-04-15T03:36:12;2.10;99.90
7411;DHT22;3747;48.628;9.058;2023-04-15T03:38:40;2.20;99.90
7411;DHT22;3747;48.628;9.058;2023-04-15T03:41:06;2.30;99.90
7411;DHT22;3747;48.628;9.058;2023-04-15T03:43:35;2.40;99.90
7411;DHT22;3747;48.628;9.058;2023-04-15T03:46:01;2.40;99.90
7411;DHT22;3747;48.628;9.058;2023-04-15T03:48:28;2.50;99.90
7411;DHT22;3747;48.628;9.058;2023-04-15T03:50:55;2.70;99.90
7411;DHT22;3747;48.628;9.058;2023-04-15T03:53:22;2.60;99.90
7411;DHT22;3747;48.628;9.058;2023-04-15T03:55:48;2.40;99.90
7411;DHT22;3747;48.628;9.058;2023-04-15T03:58:15;2.30;99.90
7411;DHT22;3747;48.628;9.058;2023-04-15T04:00:43;2.30;99.90
7411;DHT22;3747;48.628;9.058;2023-04-15T04:03:10;2.20;99.90
7411;DHT22;3747;48.628;9.058;2023-04-15T04:05:37;2.40;99.90
7411;DHT22;3747;48.628;9.058;2023-04-15T04:08:06;2.10;99.90
7411;DHT22;3747;48.628;9.058;2023-04-15T04:10:32;1.90;99.90
7411;DHT22;3747;48.628;9.058;2023-04-15T04:12:59;1.70;99.90
7411;DHT22;3747;48.628;9.058;2023-04-15T04:15:26;1.50;99.90
7411;DHT22;3747;48.628;9.058;2023-04-15T04:17:54;1.50;99.90
7411;DHT22;3747;48.628;9.058;2023-04-15T04:20:21;1.60;99.90
7411;DHT22;3747;48.628;9.058;2023-04-15T04:22:47;1.60;99.90
7411;DHT22;3747;48.628;9.058;2023-04-15T04:25:14;1.70;99.90
7411;DHT22;3747;48.628;9.058;2023-04-15T04:27:41;1.60;99.90
7411;DHT22;3747;48.628;9.058;2023-04-15T04:30:08;1.50;99.90
7411;DHT22;3747;48.628;9.058;2023-04-15T04:32:35;1.30;99.90
7411;DHT22;3747;48.628;9.058;2023-04-15T04:35:03;1.20;99.90
7411;DHT22;3747;48.628;9.058;2023-04-15T04:37:30;1.00;99.90
7411;DHT22;3747;48.628;9.058;2023-04-15T04:39:57;1.00;99.90
7411;DHT22;3747;48.628;9.058;2023-04-15T04:42:23;0.90;99.90
7411;DHT22;3747;48.628;9.058;2023-04-15T04:44:50;0.70;99.90
7411;DHT22;3747;48.628;9.058;2023-04-15T04:47:17;0.50;99.90
7411;DHT22;3747;48.628;9.058;2023-04-15T04:49:43;0.30;99.90
7411;DHT22;3747;48.628;9.058;2023-04-15T04:52:11;0.10;99.90
7411;DHT22;3747;48.628;9.058;2023-04-15T04:54:38;-0.10;99.90
7411;DHT22;3747;48.628;9.058;2023-04-15T04:57:05;-0.20;99.90
7411;DHT22;3747;48.628;9.058;2023-04-15T04:59:33;-0.20;99.90
7411;DHT22;3747;48.628;9.058;2023-04-15T05:01:59;-0.20;99.90
7411;DHT22;3747;48.628;9.058;2023-04-15T05:04:26;-0.10;99.90
7411;DHT22;3747;48.628;9.058;2023-04-15T05:06:53;0.00;99.90
7411;DHT22;3747;48.628;9.058;2023-04-15T05:09:21;0.00;99.90
7411;DHT22;3747;48.628;9.058;2023-04-15T05:11:48;0.00;99.90
7411;DHT22;3747;48.628;9.058;2023-04-15T05:14:14;0.00;99.90
7411;DHT22;3747;48.628;9.058;2023-04-15T05:16:41;0.10;99.90
7411;DHT22;3747;48.628;9.058;2023-04-15T05:19:08;0.10;99.90
7411;DHT22;3747;48.628;9.058;2023-04-15T05:21:35;0.20;99.90
7411;DHT22;3747;48.628;9.058;2023-04-15T05:24:01;0.40;99.90
7411;DHT22;3747;48.628;9.058;2023-04-15T05:26:29;0.40;99.90
7411;DHT22;3747;48.628;9.058;2023-04-15T05:28:56;0.60;99.90
7411;DHT22;3747;48.628;9.058;2023-04-15T05:31:23;0.60;99.90
7411;DHT22;3747;48.628;9.058;2023-04-15T05:33:50;0.80;99.90
7411;DHT22;3747;48.628;9.058;2023-04-15T05:36:16;0.90;99.90
7411;DHT22;3747;48.628;9.058;2023-04-15T05:38:43;1.00;99.90
7411;DHT22;3747;48.628;9.058;2023-04-15T05:41:10;1.10;99.90
7411;DHT22;3747;48.628;9.058;2023-04-15T05:43:41;1.20;99.90
7411;DHT22;3747;48.628;9.058;2023-04-15T05:46:08;1.30;99.90
7411;DHT22;3747;48.628;9.058;2023-04-15T05:48:34;1.40;99.90
7411;DHT22;3747;48.628;9.058;2023-04-15T05:51:01;1.50;99.90
7411;DHT22;3747;48.628;9.058;2023-04-15T05:53:28;1.70;99.90
7411;DHT22;3747;48.628;9.058;2023-04-15T05:55:54;2.20;99.90
7411;DHT22;3747;48.628;9.058;2023-04-15T05:58:21;2.40;99.90
7411;DHT22;3747;48.628;9.058;2023-04-15T06:00:49;2.40;99.90
7411;DHT22;3747;48.628;9.058;2023-04-15T06:03:16;2.30;99.90
7411;DHT22;3747;48.628;9.058;2023-04-15T06:05:43;2.30;99.90
7411;DHT22;3747;48.628;9.058;2023-04-15T06:08:09;2.30;99.90
7411;DHT22;3747;48.628;9.058;2023-04-15T06:10:36;2.40;99.90
7411;DHT22;3747;48.628;9.058;2023-04-15T06:13:03;2.50;99.90
7411;DHT22;3747;48.628;9.058;2023-04-15T06:15:30;2.60;99.90
7411;DHT22;3747;48.628;9.058;2023-04-15T06:17:58;2.70;99.90
7411;DHT22;3747;48.628;9.058;2023-04-15T06:20:25;2.90;99.90
7411;DHT22;3747;48.628;9.058;2023-04-15T06:22:52;3.10;99.90
7411;DHT22;3747;48.628;9.058;2023-04-15T06:25:19;3.30;99.90
7411;DHT22;3747;48.628;9.058;2023-04-15T06:27:45;3.40;99.90
7411;DHT22;3747;48.628;9.058;2023-04-15T06:30:12;3.70;99.90
7411;DHT22;3747;48.628;9.058;2023-04-15T06:32:39;3.90;99.90
7411;DHT22;3747;48.628;9.058;2023-04-15T06:35:08;4.20;99.90
7411;DHT22;3747;48.628;9.058;2023-04-15T06:37:35;4.60;99.90
7411;DHT22;3747;48.628;9.058;2023-04-15T06:40:01;5.20;99.90
7411;DHT22;3747;48.628;9.058;2023-04-15T06:42:29;5.90;99.90
7411;DHT22;3747;48.628;9.058;2023-04-15T06:44:56;6.50;99.90
7411;DHT22;3747;48.628;9.058;2023-04-15T06:47:22;6.90;99.90
7411;DHT22;3747;48.628;9.058;2023-04-15T06:49:49;6.80;99.90
7411;DHT22;3747;48.628;9.058;2023-04-15T06:52:17;6.60;99.90
7411;DHT22;3747;48.628;9.058;2023-04-15T06:54:44;6.60;99.90
7411;DHT22;3747;48.628;9.058;2023-04-15T06:57:11;6.80;99.90
7411;DHT22;3747;48.628;9.058;2023-04-15T06:59:38;7.50;99.90
7411;DHT22;3747;48.628;9.058;2023-04-15T07:02:04;7.80;99.90
7411;DHT22;3747;48.628;9.058;2023-04-15T07:04:33;8.20;99.90
7411;DHT22;3747;48.628;9.058;2023-04-15T07:06:59;8.60;99.90
7411;DHT22;3747;48.628;9.058;2023-04-15T07:09:28;9.00;99.90
7411;DHT22;3747;48.628;9.058;2023-04-15T07:11:55;9.00;99.90
7411;DHT22;3747;48.628;9.058;2023-04-15T07:14:21;9.30;99.90
7411;DHT22;3747;48.628;9.058;2023-04-15T07:16:48;9.60;99.90
7411;DHT22;3747;48.628;9.058;2023-04-15T07:19:15;10.10;99.90
7411;DHT22;3747;48.628;9.058;2023-04-15T07:21:41;10.30;99.90
7411;DHT22;3747;48.628;9.058;2023-04-15T07:24:08;10.80;99.90
7411;DHT22;3747;48.628;9.058;2023-04-15T07:26:37;11.50;99.90
7411;DHT22;3747;48.628;9.058;2023-04-15T07:29:04;11.80;99.90
7411;DHT22;3747;48.628;9.058;2023-04-15T07:31:30;11.80;99.90
7411;DHT22;3747;48.628;9.058;2023-04-15T07:34:09;11.70;99.90
7411;DHT22;3747;48.628;9.058;2023-04-15T07:36:43;11.60;99.90
7411;DHT22;3747;48.628;9.058;2023-04-15T07:39:10;11.60;99.90
7411;DHT22;3747;48.628;9.058;2023-04-15T07:41:38;12.60;99.90
7411;DHT22;3747;48.628;9.058;2023-04-15T07:44:07;13.30;99.90
7411;DHT22;3747;48.628;9.058;2023-04-15T07:46:33;13.70;99.90
7411;DHT22;3747;48.628;9.058;2023-04-15T07:49:01;13.10;99.90
7411;DHT22;3747;48.628;9.058;2023-04-15T07:51:28;12.40;99.90
7411;DHT22;3747;48.628;9.058;2023-04-15T07:53:55;11.90;99.90
7411;DHT22;3747;48.628;9.058;2023-04-15T07:56:21;11.80;99.90
7411;DHT22;3747;48.628;9.058;2023-04-15T07:58:49;11.90;99.90
7411;DHT22;3747;48.628;9.058;2023-04-15T08:01:16;11.70;99.90
7411;DHT22;3747;48.628;9.058;2023-04-15T08:03:43;11.90;99.90
7411;DHT22;3747;48.628;9.058;2023-04-15T08:06:09;13.10;99.90
7411;DHT22;3747;48.628;9.058;2023-04-15T08:08:36;13.30;99.90
7411;DHT22;3747;48.628;9.058;2023-04-15T08:11:03;13.10;99.90
7411;DHT22;3747;48.628;9.058;2023-04-15T08:13:30;13.40;99.90
7411;DHT22;3747;48.628;9.058;2023-04-15T08:16:17;13.80;99.90
7411;DHT22;3747;48.628;9.058;2023-04-15T08:18:44;14.70;99.90
7411;DHT22;3747;48.628;9.058;2023-04-15T08:21:11;14.60;99.90
7411;DHT22;3747;48.628;9.058;2023-04-15T08:23:38;15.50;99.90
7411;DHT22;3747;48.628;9.058;2023-04-15T08:26:05;15.20;99.90
7411;DHT22;3747;48.628;9.058;2023-04-15T08:28:33;14.80;99.90
7411;DHT22;3747;48.628;9.058;2023-04-15T08:31:00;15.00;99.90
7411;DHT22;3747;48.628;9.058;2023-04-15T08:33:28;14.80;99.90
7411;DHT22;3747;48.628;9.058;2023-04-15T08:35:55;14.50;99.90
7411;DHT22;3747;48.628;9.058;2023-04-15T08:38:22;15.00;99.90
7411;DHT22;3747;48.628;9.058;2023-04-15T08:40:49;15.50;99.90
7411;DHT22;3747;48.628;9.058;2023-04-15T08:43:19;14.40;99.90
7411;DHT22;3747;48.628;9.058;2023-04-15T08:45:47;13.80;99.90
7411;DHT22;3747;48.628;9.058;2023-04-15T08:48:16;13.20;99.90
7411;DHT22;3747;48.628;9.058;2023-04-15T08:50:45;13.10;99.90
7411;DHT22;3747;48.628;9.058;2023-04-15T08:53:13;14.10;99.90
7411;DHT22;3747;48.628;9.058;2023-04-15T08:55:42;14.00;99.90
7411;DHT22;3747;48.628;9.058;2023-04-15T08:58:11;14.20;99.30
7411;DHT22;3747;48.628;9.058;2023-04-15T09:00:38;14.20;99.90
7411;DHT22;3747;48.628;9.058;2023-04-15T09:03:05;14.30;98.70
7411;DHT22;3747;48.628;9.058;2023-04-15T09:05:32;13.60;99.90
7411;DHT22;3747;48.628;9.058;2023-04-15T09:08:00;13.30;99.90
7411;DHT22;3747;48.628;9.058;2023-04-15T09:10:27;13.20;99.90
7411;DHT22;3747;48.628;9.058;2023-04-15T09:12:53;13.30;99.90
7411;DHT22;3747;48.628;9.058;2023-04-15T09:15:21;13.50;99.90
7411;DHT22;3747;48.628;9.058;2023-04-15T09:17:49;13.90;99.90
7411;DHT22;3747;48.628;9.058;2023-04-15T09:20:16;14.10;99.90
7411;DHT22;3747;48.628;9.058;2023-04-15T09:22:46;14.00;99.90
7411;DHT22;3747;48.628;9.058;2023-04-15T09:25:28;14.60;99.00
7411;DHT22;3747;48.628;9.058;2023-04-15T09:27:56;15.00;99.80
7411;DHT22;3747;48.628;9.058;2023-04-15T09:30:23;14.50;99.90
7411;DHT22;3747;48.628;9.058;2023-04-15T09:32:51;14.30;99.90
7411;DHT22;3747;48.628;9.058;2023-04-15T09:35:18;14.10;99.90
7411;DHT22;3747;48.628;9.058;2023-04-15T09:37:45;14.10;99.90
7411;DHT22;3747;48.628;9.058;2023-04-15T09:40:12;14.60;99.90
7411;DHT22;3747;48.628;9.058;2023-04-15T09:42:55;14.40;97.80
7411;DHT22;3747;48.628;9.058;2023-04-15T09:45:23;15.30;96.30
7411;DHT22;3747;48.628;9.058;2023-04-15T09:47:50;15.70;95.50
7411;DHT22;3747;48.628;9.058;2023-04-15T09:50:18;15.80;95.60
7411;DHT22;3747;48.628;9.058;2023-04-15T09:52:45;15.60;94.70
7411;DHT22;3747;48.628;9.058;2023-04-15T09:55:13;15.90;92.80
7411;DHT22;3747;48.628;9.058;2023-04-15T09:57:41;15.70;96.90
7411;DHT22;3747;48.628;9.058;2023-04-15T10:00:23;15.70;91.80
7411;DHT22;3747;48.628;9.058;2023-04-15T10:02:50;15.50;90.90
7411;DHT22;3747;48.628;9.058;2023-04-15T10:05:17;15.60;91.50
7411;DHT22;3747;48.628;9.058;2023-04-15T10:07:45;15.10;91.30
7411;DHT22;3747;48.628;9.058;2023-04-15T10:10:13;14.60;90.50
7411;DHT22;3747;48.628;9.058;2023-04-15T10:12:41;14.30;90.80
7411;DHT22;3747;48.628;9.058;2023-04-15T10:15:14;13.70;87.40
7411;DHT22;3747;48.628;9.058;2023-04-15T10:17:43;13.50;89.70
7411;DHT22;3747;48.628;9.058;2023-04-15T10:20:11;13.30;87.80
7411;DHT22;3747;48.628;9.058;2023-04-15T10:22:39;13.10;89.00
7411;DHT22;3747;48.628;9.058;2023-04-15T10:25:08;13.10;86.80
7411;DHT22;3747;48.628;9.058;2023-04-15T10:27:36;14.00;95.00
7411;DHT22;3747;48.628;9.058;2023-04-15T10:30:03;14.30;92.00
7411;DHT22;3747;48.628;9.058;2023-04-15T10:32:31;14.20;92.00
7411;DHT22;3747;48.628;9.058;2023-04-15T10:35:00;13.90;91.70
7411;DHT22;3747;48.628;9.058;2023-04-15T10:37:33;13.80;91.00
7411;DHT22;3747;48.628;9.058;2023-04-15T10:40:27;13.40;90.50
7411;DHT22;3747;48.628;9.058;2023-04-15T10:42:57;13.00;93.10
7411;DHT22;3747;48.628;9.058;2023-04-15T10:45:25;13.00;92.50
7411;DHT22;3747;48.628;9.058;2023-04-15T10:47:54;12.90;92.10
7411;DHT22;3747;48.628;9.058;2023-04-15T10:50:26;12.70;92.90
7411;DHT22;3747;48.628;9.058;2023-04-15T10:52:55;12.80;91.30
7411;DHT22;3747;48.628;9.058;2023-04-15T10:55:23;13.00;90.90
7411;DHT22;3747;48.628;9.058;2023-04-15T10:57:55;12.80;92.30
7411;DHT22;3747;48.628;9.058;2023-04-15T11:00:24;13.00;92.70
7411;DHT22;3747;48.628;9.058;2023-04-15T11:02:53;12.80;92.20
7411;DHT22;3747;48.628;9.058;2023-04-15T11:05:23;12.80;91.00
7411;DHT22;3747;48.628;9.058;2023-04-15T11:08:11;13.00;93.50
7411;DHT22;3747;48.628;9.058;2023-04-15T11:10:53;13.30;91.90
7411;DHT22;3747;48.628;9.058;2023-04-15T11:13:25;13.70;91.10
7411;DHT22;3747;48.628;9.058;2023-04-15T11:15:57;13.50;92.50
7411;DHT22;3747;48.628;9.058;2023-04-15T11:18:31;13.60;91.40
7411;DHT22;3747;48.628;9.058;2023-04-15T11:21:03;13.50;91.60
7411;DHT22;3747;48.628;9.058;2023-04-15T11:23:37;13.50;92.90
7411;DHT22;3747;48.628;9.058;2023-04-15T11:26:05;14.20;95.00
7411;DHT22;3747;48.628;9.058;2023-04-15T11:28:34;14.00;94.70
7411;DHT22;3747;48.628;9.058;2023-04-15T11:31:09;13.40;95.50
7411;DHT22;3747;48.628;9.058;2023-04-15T11:33:38;12.80;95.00
7411;DHT22;3747;48.628;9.058;2023-04-15T11:36:05;12.10;97.20
7411;DHT22;3747;48.628;9.058;2023-04-15T11:38:35;11.70;97.70
7411;DHT22;3747;48.628;9.058;2023-04-15T11:41:02;11.40;98.40
7411;DHT22;3747;48.628;9.058;2023-04-15T11:43:31;11.30;98.20
7411;DHT22;3747;48.628;9.058;2023-04-15T11:46:01;11.50;99.00
7411;DHT22;3747;48.628;9.058;2023-04-15T11:48:29;11.90;99.90
7411;DHT22;3747;48.628;9.058;2023-04-15T11:50:58;12.40;97.80
7411;DHT22;3747;48.628;9.058;2023-04-15T11:53:37;13.20;98.70
7411;DHT22;3747;48.628;9.058;2023-04-15T11:56:27;13.40;97.00
7411;DHT22;3747;48.628;9.058;2023-04-15T11:58:56;13.70;96.70
7411;DHT22;3747;48.628;9.058;2023-04-15T12:01:30;13.80;95.60
7411;DHT22;3747;48.628;9.058;2023-04-15T12:04:10;14.50;96.60
7411;DHT22;3747;48.628;9.058;2023-04-15T12:06:37;15.00;96.00
7411;DHT22;3747;48.628;9.058;2023-04-15T12:09:25;15.30;95.70
7411;DHT22;3747;48.628;9.058;2023-04-15T12:12:00;15.10;95.10
7411;DHT22;3747;48.628;9.058;2023-04-15T12:14:28;14.60;95.30
7411;DHT22;3747;48.628;9.058;2023-04-15T12:16:58;14.10;96.10
7411;DHT22;3747;48.628;9.058;2023-04-15T12:19:27;13.70;95.20
7411;DHT22;3747;48.628;9.058;2023-04-15T12:21:57;13.60;97.40
7411;DHT22;3747;48.628;9.058;2023-04-15T12:24:30;14.40;95.60
7411;DHT22;3747;48.628;9.058;2023-04-15T12:27:01;14.30;93.10
7411;DHT22;3747;48.628;9.058;2023-04-15T12:29:29;14.10;93.40
7411;DHT22;3747;48.628;9.058;2023-04-15T12:31:57;14.10;93.60
7411;DHT22;3747;48.628;9.058;2023-04-15T12:34:28;14.10;96.40
7411;DHT22;3747;48.628;9.058;2023-04-15T12:36:55;13.70;94.50
7411;DHT22;3747;48.628;9.058;2023-04-15T12:39:23;13.40;98.30
7411;DHT22;3747;48.628;9.058;2023-04-15T12:41:51;13.40;98.30
7411;DHT22;3747;48.628;9.058;2023-04-15T12:44:18;13.60;98.00
7411;DHT22;3747;48.628;9.058;2023-04-15T12:46:45;14.80;99.90
7411;DHT22;3747;48.628;9.058;2023-04-15T12:49:12;15.80;96.10
7411;DHT22;3747;48.628;9.058;2023-04-15T12:51:40;16.00;95.90
7411;DHT22;3747;48.628;9.058;2023-04-15T12:54:07;14.20;96.20
7411;DHT22;3747;48.628;9.058;2023-04-15T12:56:34;13.50;95.30
7411;DHT22;3747;48.628;9.058;2023-04-15T12:59:02;12.80;97.20
7411;DHT22;3747;48.628;9.058;2023-04-15T13:01:28;13.10;96.60
7411;DHT22;3747;48.628;9.058;2023-04-15T13:03:55;14.40;97.10
7411;DHT22;3747;48.628;9.058;2023-04-15T13:06:22;14.50;95.70
7411;DHT22;3747;48.628;9.058;2023-04-15T13:08:49;14.10;94.20
7411;DHT22;3747;48.628;9.058;2023-04-15T13:11:26;13.70;92.50
7411;DHT22;3747;48.628;9.058;2023-04-15T13:13:55;13.30;93.30
7411;DHT22;3747;48.628;9.058;2023-04-15T13:16:23;13.10;94.40
7411;DHT22;3747;48.628;9.058;2023-04-15T13:18:50;13.30;94.40
7411;DHT22;3747;48.628;9.058;2023-04-15T13:21:17;13.20;98.50
7411;DHT22;3747;48.628;9.058;2023-04-15T13:23:43;13.20;99.10
7411;DHT22;3747;48.628;9.058;2023-04-15T13:26:23;12.60;98.60
7411;DHT22;3747;48.628;9.058;2023-04-15T13:28:49;12.40;99.00
7411;DHT22;3747;48.628;9.058;2023-04-15T13:31:16;12.30;97.90
7411;DHT22;3747;48.628;9.058;2023-04-15T13:33:44;12.30;99.90
7411;DHT22;3747;48.628;9.058;2023-04-15T13:36:11;12.10;99.10
7411;DHT22;3747;48.628;9.058;2023-04-15T13:38:37;11.90;99.90
7411;DHT22;3747;48.628;9.058;2023-04-15T13:41:04;11.80;98.20
7411;DHT22;3747;48.628;9.058;2023-04-15T13:43:31;11.30;98.40
7411;DHT22;3747;48.628;9.058;2023-04-15T13:45:58;10.90;99.90
7411;DHT22;3747;48.628;9.058;2023-04-15T13:48:25;10.60;98.60
7411;DHT22;3747;48.628;9.058;2023-04-15T13:51:05;10.30;98.90
7411;DHT22;3747;48.628;9.058;2023-04-15T13:53:32;10.10;98.30
7411;DHT22;3747;48.628;9.058;2023-04-15T13:56:00;9.90;99.40
7411;DHT22;3747;48.628;9.058;2023-04-15T13:58:27;9.70;99.60
7411;DHT22;3747;48.628;9.058;2023-04-15T14:00:53;9.70;99.90
7411;DHT22;3747;48.628;9.058;2023-04-15T14:03:20;9.50;99.90
7411;DHT22;3747;48.628;9.058;2023-04-15T14:05:47;9.40;99.90
7411;DHT22;3747;48.628;9.058;2023-04-15T14:08:19;9.40;99.90
7411;DHT22;3747;48.628;9.058;2023-04-15T14:10:45;9.70;99.90
7411;DHT22;3747;48.628;9.058;2023-04-15T14:13:13;10.10;99.40
7411;DHT22;3747;48.628;9.058;2023-04-15T14:15:40;10.40;99.80
7411;DHT22;3747;48.628;9.058;2023-04-15T14:18:07;10.80;99.80
7411;DHT22;3747;48.628;9.058;2023-04-15T14:20:34;10.90;98.40
7411;DHT22;3747;48.628;9.058;2023-04-15T14:23:00;11.10;98.70
7411;DHT22;3747;48.628;9.058;2023-04-15T14:25:29;11.10;98.10
7411;DHT22;3747;48.628;9.058;2023-04-15T14:27:55;11.00;98.60
7411;DHT22;3747;48.628;9.058;2023-04-15T14:30:22;11.00;98.30
7411;DHT22;3747;48.628;9.058;2023-04-15T14:32:49;10.90;95.80
7411;DHT22;3747;48.628;9.058;2023-04-15T14:35:15;10.80;92.90
7411;DHT22;3747;48.628;9.058;2023-04-15T14:37:42;10.70;91.50
7411;DHT22;3747;48.628;9.058;2023-04-15T14:40:09;10.50;86.90
7411;DHT22;3747;48.628;9.058;2023-04-15T14:42:37;10.30;83.50
7411;DHT22;3747;48.628;9.058;2023-04-15T14:45:05;10.10;85.30
7411;DHT22;3747;48.628;9.058;2023-04-15T14:47:31;10.00;86.90
7411;DHT22;3747;48.628;9.058;2023-04-15T14:49:58;9.90;90.20
7411;DHT22;3747;48.628;9.058;2023-04-15T14:52:25;9.90;91.30
7411;DHT22;3747;48.628;9.058;2023-04-15T14:54:51;9.90;92.40
7411;DHT22;3747;48.628;9.058;2023-04-15T14:57:18;9.90;91.80
7411;DHT22;3747;48.628;9.058;2023-04-15T14:59:46;9.90;92.70
7411;DHT22;3747;48.628;9.058;2023-04-15T15:02:13;10.00;93.10
7411;DHT22;3747;48.628;9.058;2023-04-15T15:04:50;10.00;92.70
7411;DHT22;3747;48.628;9.058;2023-04-15T15:07:16;10.10;93.40
7411;DHT22;3747;48.628;9.058;2023-04-15T15:09:43;10.00;93.60
7411;DHT22;3747;48.628;9.058;2023-04-15T15:12:10;10.00;94.50
7411;DHT22;3747;48.628;9.058;2023-04-15T15:14:37;9.90;94.90
7411;DHT22;3747;48.628;9.058;2023-04-15T15:17:05;9.90;94.80
7411;DHT22;3747;48.628;9.058;2023-04-15T15:19:32;9.90;95.50
7411;DHT22;3747;48.628;9.058;2023-04-15T15:21:58;9.80;96.30
7411;DHT22;3747;48.628;9.058;2023-04-15T15:24:25;9.70;97.10
7411;DHT22;3747;48.628;9.058;2023-04-15T15:26:52;9.60;97.80
7411;DHT22;3747;48.628;9.058;2023-04-15T15:29:18;9.50;97.70
7411;DHT22;3747;48.628;9.058;2023-04-15T15:31:45;9.40;98.50
7411;DHT22;3747;48.628;9.058;2023-04-15T15:34:14;9.40;98.70
7411;DHT22;3747;48.628;9.058;2023-04-15T15:36:40;9.30;99.10
7411;DHT22;3747;48.628;9.058;2023-04-15T15:39:07;9.50;99.20
7411;DHT22;3747;48.628;9.058;2023-04-15T15:41:34;9.50;99.70
7411;DHT22;3747;48.628;9.058;2023-04-15T15:44:01;9.40;99.70
7411;DHT22;3747;48.628;9.058;2023-04-15T15:46:28;9.30;99.90
7411;DHT22;3747;48.628;9.058;2023-04-15T15:48:55;9.20;99.70
7411;DHT22;3747;48.628;9.058;2023-04-15T15:51:24;9.20;99.90
7411;DHT22;3747;48.628;9.058;2023-04-15T15:53:51;9.20;99.90
7411;DHT22;3747;48.628;9.058;2023-04-15T15:56:26;9.10;99.90
7411;DHT22;3747;48.628;9.058;2023-04-15T15:58:53;9.20;99.90
7411;DHT22;3747;48.628;9.058;2023-04-15T16:01:20;9.20;99.90
7411;DHT22;3747;48.628;9.058;2023-04-15T16:03:47;9.20;99.90
7411;DHT22;3747;48.628;9.058;2023-04-15T16:06:13;9.20;99.90
7411;DHT22;3747;48.628;9.058;2023-04-15T16:08:42;9.10;99.90
7411;DHT22;3747;48.628;9.058;2023-04-15T16:11:09;9.10;99.90
7411;DHT22;3747;48.628;9.058;2023-04-15T16:13:35;9.10;99.90
7411;DHT22;3747;48.628;9.058;2023-04-15T16:16:02;9.00;99.90